SVA596 OERK-OMDB
Flight info
| Callsign | SVA596 |
|---|---|
| Flight time | 1h 22m |
| Altitude | 39000 |
| Route | EGPIN H744 KINIB N687 MIBRA J749 ROTEL N572 DAVRI L704 BOTOB P559 NALPO/N0465F350 P559 VUTEB |
| Aircraft | B772/H-SDE2E3FGHIJ5LORVWXY/LB1D1 |
Departure
| Time | 2026-04-23 16:40 |
|---|---|
| Airport | King Khalid International Airport (OERK) |
Arrival
| Time | 2026-04-23 18:03 |
|---|---|
| Airport | Dubai International Airport (OMDB) |
| Time | Latitude | Longitude | Altitude | Speed | Heading |
|---|---|---|---|---|---|
| 2026-04-23 16:05 | 24.96204 | 46.70351 | 2057 ft | 0 kts | 235° |
| 2026-04-23 16:24 | 24.96207 | 46.70357 | 2057 ft | 2 kts | 235° |
| 2026-04-23 16:25 | 24.96216 | 46.70370 | 2057 ft | 2 kts | 235° |
| 2026-04-23 16:25 | 24.96225 | 46.70383 | 2057 ft | 2 kts | 235° |
| 2026-04-23 16:25 | 24.96233 | 46.70397 | 2057 ft | 2 kts | 235° |
| 2026-04-23 16:25 | 24.96242 | 46.70411 | 2057 ft | 2 kts | 247° |
| 2026-04-23 16:26 | 24.96245 | 46.70427 | 2057 ft | 2 kts | 273° |
| 2026-04-23 16:26 | 24.96242 | 46.70443 | 2057 ft | 2 kts | 295° |
| 2026-04-23 16:26 | 24.96234 | 46.70457 | 2057 ft | 2 kts | 316° |
| 2026-04-23 16:26 | 24.96222 | 46.70467 | 2057 ft | 2 kts | 334° |
| 2026-04-23 16:27 | 24.96217 | 46.70470 | 2057 ft | 0 kts | 334° |
| 2026-04-23 16:31 | 24.96217 | 46.70469 | 2057 ft | 0 kts | 334° |
| 2026-04-23 16:31 | 24.96231 | 46.70462 | 2057 ft | 3 kts | 333° |
| 2026-04-23 16:31 | 24.96260 | 46.70444 | 2057 ft | 6 kts | 329° |
| 2026-04-23 16:31 | 24.96296 | 46.70420 | 2057 ft | 5 kts | 329° |
| 2026-04-23 16:32 | 24.96337 | 46.70396 | 2057 ft | 5 kts | 348° |
| 2026-04-23 16:32 | 24.96375 | 46.70415 | 2057 ft | 7 kts | 57° |
| 2026-04-23 16:32 | 24.96408 | 46.70474 | 2057 ft | 10 kts | 60° |
| 2026-04-23 16:32 | 24.96446 | 46.70547 | 2057 ft | 12 kts | 60° |
| 2026-04-23 16:33 | 24.96471 | 46.70597 | 2057 ft | 6 kts | 70° |
| 2026-04-23 16:33 | 24.96454 | 46.70639 | 2057 ft | 7 kts | 146° |
| 2026-04-23 16:33 | 24.96399 | 46.70673 | 2057 ft | 10 kts | 155° |
| 2026-04-23 16:33 | 24.96331 | 46.70715 | 2057 ft | 12 kts | 151° |
| 2026-04-23 16:34 | 24.96248 | 46.70765 | 2057 ft | 14 kts | 151° |
| 2026-04-23 16:34 | 24.96177 | 46.70813 | 2057 ft | 15 kts | 149° |
| 2026-04-23 16:34 | 24.96082 | 46.70873 | 2057 ft | 17 kts | 150° |
| 2026-04-23 16:34 | 24.95994 | 46.70929 | 2057 ft | 18 kts | 150° |
| 2026-04-23 16:35 | 24.95878 | 46.71002 | 2057 ft | 19 kts | 151° |
| 2026-04-23 16:35 | 24.95755 | 46.71077 | 2057 ft | 20 kts | 151° |
| 2026-04-23 16:35 | 24.95629 | 46.71158 | 2057 ft | 21 kts | 149° |
| 2026-04-23 16:35 | 24.95495 | 46.71244 | 2057 ft | 22 kts | 150° |
| 2026-04-23 16:36 | 24.95354 | 46.71333 | 2057 ft | 23 kts | 150° |
| 2026-04-23 16:36 | 24.95208 | 46.71425 | 2057 ft | 24 kts | 150° |
| 2026-04-23 16:36 | 24.95056 | 46.71521 | 2057 ft | 22 kts | 150° |
| 2026-04-23 16:36 | 24.94938 | 46.71597 | 2057 ft | 20 kts | 151° |
| 2026-04-23 16:37 | 24.94810 | 46.71677 | 2057 ft | 21 kts | 150° |
| 2026-04-23 16:37 | 24.94678 | 46.71759 | 2057 ft | 22 kts | 150° |
| 2026-04-23 16:37 | 24.94569 | 46.71830 | 2057 ft | 8 kts | 150° |
| 2026-04-23 16:37 | 24.94510 | 46.71867 | 2057 ft | 10 kts | 150° |
| 2026-04-23 16:38 | 24.94443 | 46.71909 | 2057 ft | 6 kts | 150° |
| 2026-04-23 16:38 | 24.94424 | 46.71956 | 2057 ft | 8 kts | 75° |
| 2026-04-23 16:38 | 24.94459 | 46.72018 | 2057 ft | 10 kts | 57° |
| 2026-04-23 16:38 | 24.94496 | 46.72086 | 2057 ft | 10 kts | 60° |
| 2026-04-23 16:39 | 24.94539 | 46.72155 | 2057 ft | 11 kts | 38° |
| 2026-04-23 16:39 | 24.94616 | 46.72143 | 2057 ft | 12 kts | 329° |
| 2026-04-23 16:39 | 24.94778 | 46.72040 | 2057 ft | 57 kts | 332° |
| 2026-04-23 16:39 | 24.95365 | 46.71670 | 2057 ft | 131 kts | 330° |
| 2026-04-23 16:40 | 24.96295 | 46.71088 | 2238 ft | 171 kts | 332° |
| 2026-04-23 16:40 | 24.97349 | 46.70505 | 3070 ft | 172 kts | 339° |
| 2026-04-23 16:40 | 24.98319 | 46.69832 | 3833 ft | 171 kts | 325° |
| 2026-04-23 16:40 | 24.99433 | 46.69251 | 4245 ft | 186 kts | 345° |
| 2026-04-23 16:41 | 25.00719 | 46.68830 | 4651 ft | 202 kts | 343° |
| 2026-04-23 16:41 | 25.02101 | 46.68321 | 5017 ft | 217 kts | 342° |
| 2026-04-23 16:41 | 25.03567 | 46.67760 | 5313 ft | 232 kts | 342° |
| 2026-04-23 16:41 | 25.05121 | 46.67165 | 5692 ft | 241 kts | 342° |
| 2026-04-23 16:42 | 25.06701 | 46.66560 | 6169 ft | 244 kts | 342° |
| 2026-04-23 16:42 | 25.08061 | 46.66192 | 6544 ft | 244 kts | 358° |
| 2026-04-23 16:42 | 25.09698 | 46.66526 | 6974 ft | 245 kts | 25° |
| 2026-04-23 16:42 | 25.10960 | 46.67646 | 7439 ft | 244 kts | 52° |
| 2026-04-23 16:43 | 25.11694 | 46.69344 | 7902 ft | 255 kts | 71° |
| 2026-04-23 16:43 | 25.12258 | 46.71234 | 8419 ft | 268 kts | 72° |
| 2026-04-23 16:43 | 25.12838 | 46.73217 | 9072 ft | 275 kts | 72° |
| 2026-04-23 16:43 | 25.13422 | 46.75221 | 9800 ft | 278 kts | 72° |
| 2026-04-23 16:44 | 25.14019 | 46.77270 | 10407 ft | 285 kts | 72° |
| 2026-04-23 16:44 | 25.14644 | 46.79413 | 10767 ft | 301 kts | 72° |
| 2026-04-23 16:44 | 25.15295 | 46.81651 | 11106 ft | 316 kts | 72° |
| 2026-04-23 16:44 | 25.15982 | 46.84016 | 11432 ft | 331 kts | 72° |
| 2026-04-23 16:45 | 25.16707 | 46.86510 | 11741 ft | 345 kts | 72° |
| 2026-04-23 16:45 | 25.17449 | 46.89065 | 12021 ft | 358 kts | 72° |
| 2026-04-23 16:45 | 25.18219 | 46.91718 | 12376 ft | 368 kts | 72° |
| 2026-04-23 16:45 | 25.18996 | 46.94398 | 12927 ft | 372 kts | 73° |
| 2026-04-23 16:46 | 25.19783 | 46.97118 | 13549 ft | 374 kts | 73° |
| 2026-04-23 16:46 | 25.20575 | 46.99852 | 14188 ft | 376 kts | 73° |
| 2026-04-23 16:46 | 25.21373 | 47.02614 | 14848 ft | 379 kts | 73° |
| 2026-04-23 16:46 | 25.22172 | 47.05379 | 15520 ft | 381 kts | 73° |
| 2026-04-23 16:47 | 25.22976 | 47.08160 | 16166 ft | 385 kts | 74° |
| 2026-04-23 16:47 | 25.23793 | 47.10992 | 16788 ft | 388 kts | 74° |
| 2026-04-23 16:47 | 25.24616 | 47.13846 | 17405 ft | 392 kts | 74° |
| 2026-04-23 16:47 | 25.25455 | 47.16753 | 18015 ft | 396 kts | 75° |
| 2026-04-23 16:48 | 25.26291 | 47.19658 | 18596 ft | 401 kts | 75° |
| 2026-04-23 16:48 | 25.27130 | 47.22572 | 19177 ft | 405 kts | 75° |
| 2026-04-23 16:48 | 25.27987 | 47.25551 | 19773 ft | 409 kts | 76° |
| 2026-04-23 16:48 | 25.28848 | 47.28549 | 20335 ft | 413 kts | 76° |
| 2026-04-23 16:49 | 25.29423 | 47.30552 | 20699 ft | 416 kts | 76° |
| 2026-04-23 16:49 | 25.30594 | 47.34634 | 21409 ft | 423 kts | 76° |
| 2026-04-23 16:49 | 25.31487 | 47.37752 | 21939 ft | 428 kts | 76° |
| 2026-04-23 16:49 | 25.32392 | 47.40916 | 22446 ft | 433 kts | 76° |
| 2026-04-23 16:50 | 25.33307 | 47.44114 | 22958 ft | 439 kts | 77° |
| 2026-04-23 16:50 | 25.34230 | 47.47343 | 23459 ft | 444 kts | 77° |
| 2026-04-23 16:50 | 25.35156 | 47.50588 | 23952 ft | 449 kts | 77° |
| 2026-04-23 16:50 | 25.36104 | 47.53910 | 24417 ft | 455 kts | 77° |
| 2026-04-23 16:51 | 25.37060 | 47.57263 | 24905 ft | 460 kts | 77° |
| 2026-04-23 16:51 | 25.38027 | 47.60656 | 25367 ft | 466 kts | 77° |
| 2026-04-23 16:51 | 25.39009 | 47.64104 | 25806 ft | 472 kts | 77° |
| 2026-04-23 16:51 | 25.40004 | 47.67598 | 26256 ft | 477 kts | 77° |
| 2026-04-23 16:52 | 25.41121 | 47.71088 | 26697 ft | 486 kts | 72° |
| 2026-04-23 16:52 | 25.42496 | 47.74535 | 27107 ft | 493 kts | 70° |
| 2026-04-23 16:52 | 25.43907 | 47.77987 | 27512 ft | 499 kts | 70° |
| 2026-04-23 16:52 | 25.45327 | 47.81462 | 27935 ft | 503 kts | 70° |
| 2026-04-23 16:53 | 25.46775 | 47.85009 | 28342 ft | 509 kts | 70° |
| 2026-04-23 16:53 | 25.48235 | 47.88592 | 28734 ft | 514 kts | 70° |
| 2026-04-23 16:53 | 25.49716 | 47.92233 | 29124 ft | 519 kts | 70° |
| 2026-04-23 16:53 | 25.51192 | 47.95865 | 29581 ft | 523 kts | 69° |
| 2026-04-23 16:54 | 25.52392 | 47.98819 | 30039 ft | 523 kts | 69° |
| 2026-04-23 16:54 | 25.53422 | 48.01354 | 30435 ft | 523 kts | 69° |
| 2026-04-23 16:54 | 25.54913 | 48.05027 | 30967 ft | 525 kts | 69° |
| 2026-04-23 16:54 | 25.56417 | 48.08738 | 31487 ft | 526 kts | 68° |
| 2026-04-23 16:55 | 25.57898 | 48.12393 | 31996 ft | 528 kts | 68° |
| 2026-04-23 16:55 | 25.59397 | 48.16099 | 32528 ft | 529 kts | 68° |
| 2026-04-23 16:55 | 25.60906 | 48.19831 | 33084 ft | 530 kts | 67° |
| 2026-04-23 16:55 | 25.62397 | 48.23524 | 33659 ft | 530 kts | 67° |
| 2026-04-23 16:56 | 25.63891 | 48.27227 | 34207 ft | 530 kts | 66° |
| 2026-04-23 16:56 | 25.65393 | 48.30952 | 34792 ft | 529 kts | 66° |
| 2026-04-23 16:56 | 25.66897 | 48.34687 | 35406 ft | 527 kts | 66° |
| 2026-04-23 16:56 | 25.68423 | 48.38345 | 36011 ft | 524 kts | 62° |
| 2026-04-23 16:57 | 25.70273 | 48.41826 | 36534 ft | 523 kts | 57° |
| 2026-04-23 16:57 | 25.72201 | 48.45199 | 36948 ft | 523 kts | 57° |
| 2026-04-23 16:57 | 25.74166 | 48.48620 | 37310 ft | 524 kts | 57° |
| 2026-04-23 16:57 | 25.75544 | 48.51020 | 37561 ft | 524 kts | 57° |
| 2026-04-23 16:58 | 25.76454 | 48.52606 | 37737 ft | 524 kts | 57° |
| 2026-04-23 16:58 | 25.77872 | 48.55079 | 38016 ft | 524 kts | 57° |
| 2026-04-23 16:58 | 25.79801 | 48.58448 | 38367 ft | 523 kts | 57° |
| 2026-04-23 16:58 | 25.81746 | 48.61849 | 38700 ft | 523 kts | 57° |
| 2026-04-23 16:59 | 25.83704 | 48.65275 | 38982 ft | 524 kts | 57° |
| 2026-04-23 16:59 | 25.85674 | 48.68725 | 39077 ft | 526 kts | 57° |
| 2026-04-23 16:59 | 25.89547 | 48.75518 | 39085 ft | 525 kts | 57° |
| 2026-04-23 17:00 | 25.93457 | 48.82386 | 39087 ft | 525 kts | 57° |
| 2026-04-23 17:00 | 25.97400 | 48.89180 | 39085 ft | 525 kts | 56° |
| 2026-04-23 17:01 | 26.01428 | 48.95920 | 39080 ft | 525 kts | 56° |
| 2026-04-23 17:01 | 26.05441 | 49.02652 | 39074 ft | 523 kts | 56° |
| 2026-04-23 17:02 | 26.09441 | 49.09382 | 39070 ft | 521 kts | 56° |
| 2026-04-23 17:02 | 26.13406 | 49.16067 | 39064 ft | 519 kts | 56° |
| 2026-04-23 17:03 | 26.17368 | 49.22758 | 39064 ft | 518 kts | 56° |
| 2026-04-23 17:03 | 26.21318 | 49.29477 | 39066 ft | 518 kts | 56° |
| 2026-04-23 17:04 | 26.25259 | 49.36169 | 39067 ft | 518 kts | 56° |
| 2026-04-23 17:04 | 26.29216 | 49.42857 | 39068 ft | 518 kts | 56° |
| 2026-04-23 17:05 | 26.33151 | 49.49529 | 39069 ft | 518 kts | 56° |
| 2026-04-23 17:05 | 26.37106 | 49.56261 | 39070 ft | 518 kts | 56° |
| 2026-04-23 17:06 | 26.41036 | 49.62964 | 39071 ft | 518 kts | 56° |
| 2026-04-23 17:06 | 26.44963 | 49.69669 | 39061 ft | 518 kts | 56° |
| 2026-04-23 17:07 | 26.48850 | 49.76450 | 39060 ft | 518 kts | 62° |
| 2026-04-23 17:07 | 26.51537 | 49.83847 | 39063 ft | 517 kts | 72° |
| 2026-04-23 17:08 | 26.53791 | 49.91411 | 39063 ft | 517 kts | 72° |
| 2026-04-23 17:08 | 26.56059 | 49.99057 | 39061 ft | 517 kts | 72° |
| 2026-04-23 17:09 | 26.58309 | 50.06648 | 39056 ft | 517 kts | 72° |
| 2026-04-23 17:09 | 26.60563 | 50.14259 | 39054 ft | 517 kts | 72° |
| 2026-04-23 17:10 | 26.62820 | 50.21891 | 39054 ft | 517 kts | 72° |
| 2026-04-23 17:10 | 26.64853 | 50.28786 | 39054 ft | 517 kts | 72° |
| 2026-04-23 17:11 | 26.67091 | 50.36389 | 39052 ft | 517 kts | 72° |
| 2026-04-23 17:11 | 26.69165 | 50.44072 | 39050 ft | 517 kts | 75° |
| 2026-04-23 17:12 | 26.71178 | 50.51769 | 39051 ft | 517 kts | 75° |
| 2026-04-23 17:12 | 26.73180 | 50.59435 | 39052 ft | 517 kts | 75° |
| 2026-04-23 17:13 | 26.75199 | 50.67168 | 39044 ft | 517 kts | 75° |
| 2026-04-23 17:13 | 26.77207 | 50.74868 | 39042 ft | 517 kts | 75° |
| 2026-04-23 17:14 | 26.79220 | 50.82601 | 39043 ft | 517 kts | 75° |
| 2026-04-23 17:14 | 26.80935 | 50.90333 | 39040 ft | 514 kts | 85° |
| 2026-04-23 17:15 | 26.80809 | 50.98215 | 39041 ft | 506 kts | 103° |
| 2026-04-23 17:15 | 26.78752 | 51.05660 | 39048 ft | 499 kts | 116° |
| 2026-04-23 17:16 | 26.76215 | 51.12886 | 39049 ft | 501 kts | 112° |
| 2026-04-23 17:16 | 26.73963 | 51.20187 | 39047 ft | 501 kts | 112° |
| 2026-04-23 17:17 | 26.71668 | 51.27506 | 39048 ft | 501 kts | 113° |
| 2026-04-23 17:17 | 26.69336 | 51.34851 | 39048 ft | 500 kts | 113° |
| 2026-04-23 17:18 | 26.65833 | 51.45779 | 39050 ft | 501 kts | 113° |
| 2026-04-23 17:19 | 26.63488 | 51.53101 | 39050 ft | 500 kts | 113° |
| 2026-04-23 17:19 | 26.61147 | 51.60384 | 39051 ft | 501 kts | 113° |
| 2026-04-23 17:20 | 26.58786 | 51.67713 | 39041 ft | 500 kts | 114° |
| 2026-04-23 17:21 | 26.54072 | 51.82295 | 39042 ft | 500 kts | 114° |
| 2026-04-23 17:21 | 26.50510 | 51.93173 | 39042 ft | 500 kts | 114° |
| 2026-04-23 17:22 | 26.46890 | 52.04042 | 39044 ft | 499 kts | 114° |
| 2026-04-23 17:23 | 26.43266 | 52.14898 | 39045 ft | 500 kts | 114° |
| 2026-04-23 17:24 | 26.39622 | 52.25782 | 39046 ft | 499 kts | 114° |
| 2026-04-23 17:24 | 26.35983 | 52.36620 | 39047 ft | 500 kts | 114° |
| 2026-04-23 17:25 | 26.32024 | 52.47300 | 39048 ft | 498 kts | 117° |
| 2026-04-23 17:26 | 26.27724 | 52.60500 | 38913 ft | 466 kts | 111° |
| 2026-04-23 17:27 | 26.25806 | 52.67239 | 38429 ft | 446 kts | 112° |
| 2026-04-23 17:27 | 26.24874 | 52.70509 | 38160 ft | 442 kts | 112° |
| 2026-04-23 17:27 | 26.23922 | 52.73830 | 37873 ft | 458 kts | 112° |
| 2026-04-23 17:27 | 26.22939 | 52.77253 | 37547 ft | 474 kts | 111° |
| 2026-04-23 17:28 | 26.21933 | 52.80752 | 37219 ft | 487 kts | 111° |
| 2026-04-23 17:28 | 26.20903 | 52.84341 | 36885 ft | 489 kts | 111° |
| 2026-04-23 17:28 | 26.19864 | 52.87962 | 36552 ft | 487 kts | 111° |
| 2026-04-23 17:28 | 26.18849 | 52.91495 | 36230 ft | 485 kts | 111° |
| 2026-04-23 17:29 | 26.17814 | 52.95095 | 35915 ft | 481 kts | 111° |
| 2026-04-23 17:29 | 26.16812 | 52.98577 | 35568 ft | 480 kts | 111° |
| 2026-04-23 17:29 | 26.14772 | 53.05653 | 34701 ft | 479 kts | 111° |
| 2026-04-23 17:30 | 26.13755 | 53.09177 | 34250 ft | 475 kts | 111° |
| 2026-04-23 17:30 | 26.11754 | 53.16101 | 33355 ft | 468 kts | 111° |
| 2026-04-23 17:30 | 26.10776 | 53.19479 | 32910 ft | 463 kts | 111° |
| 2026-04-23 17:31 | 26.09795 | 53.22865 | 32442 ft | 458 kts | 111° |
| 2026-04-23 17:31 | 26.08818 | 53.26237 | 31967 ft | 453 kts | 111° |
| 2026-04-23 17:31 | 26.07865 | 53.29519 | 31500 ft | 448 kts | 112° |
| 2026-04-23 17:31 | 26.06915 | 53.32787 | 31029 ft | 447 kts | 112° |
| 2026-04-23 17:32 | 26.05945 | 53.36120 | 30549 ft | 450 kts | 112° |
| 2026-04-23 17:32 | 26.04997 | 53.39376 | 30077 ft | 446 kts | 112° |
| 2026-04-23 17:32 | 26.04049 | 53.42631 | 29603 ft | 441 kts | 112° |
| 2026-04-23 17:32 | 26.03111 | 53.45848 | 29131 ft | 436 kts | 112° |
| 2026-04-23 17:33 | 26.02183 | 53.49028 | 28658 ft | 431 kts | 112° |
| 2026-04-23 17:33 | 26.01271 | 53.52150 | 28188 ft | 426 kts | 112° |
| 2026-04-23 17:33 | 26.00360 | 53.55266 | 27714 ft | 421 kts | 112° |
| 2026-04-23 17:33 | 25.99517 | 53.58144 | 27270 ft | 417 kts | 112° |
| 2026-04-23 17:34 | 25.98707 | 53.60912 | 26884 ft | 411 kts | 112° |
| 2026-04-23 17:34 | 25.97827 | 53.63914 | 26480 ft | 405 kts | 112° |
| 2026-04-23 17:34 | 25.96116 | 53.69745 | 25676 ft | 392 kts | 112° |
| 2026-04-23 17:35 | 25.95263 | 53.72644 | 25274 ft | 403 kts | 112° |
| 2026-04-23 17:35 | 25.93472 | 53.78713 | 24446 ft | 411 kts | 112° |
| 2026-04-23 17:35 | 25.92600 | 53.81669 | 24045 ft | 406 kts | 112° |
| 2026-04-23 17:36 | 25.91728 | 53.84626 | 23642 ft | 402 kts | 112° |
| 2026-04-23 17:36 | 25.90859 | 53.87569 | 23237 ft | 398 kts | 111° |
| 2026-04-23 17:36 | 25.89998 | 53.90483 | 22832 ft | 395 kts | 111° |
| 2026-04-23 17:36 | 25.89146 | 53.93363 | 22439 ft | 392 kts | 111° |
| 2026-04-23 17:37 | 25.88309 | 53.96190 | 22049 ft | 389 kts | 111° |
| 2026-04-23 17:37 | 25.87465 | 53.99041 | 21653 ft | 386 kts | 111° |
| 2026-04-23 17:37 | 25.85800 | 54.04650 | 20865 ft | 380 kts | 111° |
| 2026-04-23 17:38 | 25.84971 | 54.07444 | 20468 ft | 377 kts | 111° |
| 2026-04-23 17:38 | 25.84161 | 54.10166 | 20078 ft | 374 kts | 110° |
| 2026-04-23 17:38 | 25.83345 | 54.12909 | 19681 ft | 372 kts | 110° |
| 2026-04-23 17:38 | 25.82538 | 54.15619 | 19286 ft | 369 kts | 110° |
| 2026-04-23 17:39 | 25.81735 | 54.18315 | 18890 ft | 367 kts | 110° |
| 2026-04-23 17:39 | 25.80939 | 54.20982 | 18495 ft | 364 kts | 110° |
| 2026-04-23 17:39 | 25.80155 | 54.23610 | 18103 ft | 362 kts | 110° |
| 2026-04-23 17:39 | 25.79368 | 54.26246 | 17704 ft | 353 kts | 110° |
| 2026-04-23 17:40 | 25.78611 | 54.28782 | 17313 ft | 344 kts | 110° |
| 2026-04-23 17:40 | 25.77869 | 54.31263 | 16921 ft | 335 kts | 110° |
| 2026-04-23 17:40 | 25.77146 | 54.33678 | 16530 ft | 329 kts | 109° |
| 2026-04-23 17:40 | 25.76423 | 54.36093 | 16132 ft | 327 kts | 109° |
| 2026-04-23 17:41 | 25.75707 | 54.38481 | 15734 ft | 326 kts | 109° |
| 2026-04-23 17:41 | 25.74291 | 54.43201 | 14940 ft | 322 kts | 109° |
| 2026-04-23 17:41 | 25.73582 | 54.45558 | 14543 ft | 318 kts | 109° |
| 2026-04-23 17:42 | 25.72239 | 54.50029 | 14021 ft | 298 kts | 109° |
| 2026-04-23 17:42 | 25.71588 | 54.52192 | 13774 ft | 294 kts | 109° |
| 2026-04-23 17:42 | 25.70940 | 54.54343 | 13603 ft | 292 kts | 109° |
| 2026-04-23 17:43 | 25.70294 | 54.56485 | 13475 ft | 293 kts | 109° |
| 2026-04-23 17:43 | 25.69654 | 54.58609 | 13350 ft | 292 kts | 108° |
| 2026-04-23 17:43 | 25.69004 | 54.60763 | 13220 ft | 287 kts | 108° |
| 2026-04-23 17:43 | 25.68387 | 54.62807 | 13092 ft | 276 kts | 108° |
| 2026-04-23 17:44 | 25.67784 | 54.64803 | 12967 ft | 270 kts | 108° |
| 2026-04-23 17:44 | 25.67188 | 54.66774 | 12842 ft | 266 kts | 109° |
| 2026-04-23 17:44 | 25.66022 | 54.70630 | 12136 ft | 266 kts | 109° |
| 2026-04-23 17:45 | 25.65430 | 54.72585 | 11792 ft | 264 kts | 109° |
| 2026-04-23 17:45 | 25.64269 | 54.76416 | 11106 ft | 261 kts | 108° |
| 2026-04-23 17:45 | 25.63694 | 54.78313 | 10761 ft | 260 kts | 108° |
| 2026-04-23 17:46 | 25.62551 | 54.82079 | 10168 ft | 255 kts | 108° |
| 2026-04-23 17:46 | 25.61985 | 54.83943 | 10142 ft | 258 kts | 108° |
| 2026-04-23 17:46 | 25.61404 | 54.85852 | 10138 ft | 258 kts | 109° |
| 2026-04-23 17:47 | 25.60740 | 54.87690 | 10138 ft | 258 kts | 113° |
| 2026-04-23 17:47 | 25.60031 | 54.89508 | 10138 ft | 258 kts | 113° |
| 2026-04-23 17:47 | 25.58602 | 54.93168 | 10138 ft | 258 kts | 113° |
| 2026-04-23 17:48 | 25.57889 | 54.94997 | 10138 ft | 258 kts | 113° |
| 2026-04-23 17:48 | 25.57171 | 54.96838 | 10138 ft | 258 kts | 113° |
| 2026-04-23 17:48 | 25.56467 | 54.98644 | 10138 ft | 258 kts | 113° |
| 2026-04-23 17:48 | 25.55756 | 55.00467 | 10138 ft | 257 kts | 113° |
| 2026-04-23 17:49 | 25.55046 | 55.02287 | 10113 ft | 255 kts | 113° |
| 2026-04-23 17:49 | 25.54277 | 55.04052 | 9826 ft | 255 kts | 118° |
| 2026-04-23 17:49 | 25.53398 | 55.05761 | 9489 ft | 255 kts | 119° |
| 2026-04-23 17:49 | 25.52516 | 55.07451 | 9220 ft | 253 kts | 119° |
| 2026-04-23 17:50 | 25.51634 | 55.09145 | 8935 ft | 252 kts | 119° |
| 2026-04-23 17:50 | 25.49898 | 55.12489 | 8376 ft | 250 kts | 119° |
| 2026-04-23 17:50 | 25.49039 | 55.14144 | 8159 ft | 247 kts | 119° |
| 2026-04-23 17:51 | 25.48161 | 55.15836 | 8144 ft | 261 kts | 119° |
| 2026-04-23 17:51 | 25.47241 | 55.17609 | 8139 ft | 269 kts | 119° |
| 2026-04-23 17:51 | 25.45122 | 55.21050 | 8137 ft | 271 kts | 130° |
| 2026-04-23 17:52 | 25.43861 | 55.22598 | 8137 ft | 271 kts | 131° |
| 2026-04-23 17:52 | 25.41340 | 55.25676 | 8137 ft | 271 kts | 131° |
| 2026-04-23 17:52 | 25.35506 | 55.32835 | 8148 ft | 271 kts | 131° |
| 2026-04-23 17:53 | 25.33430 | 55.36465 | 7331 ft | 269 kts | 117° |
| 2026-04-23 17:53 | 25.32516 | 55.38249 | 6924 ft | 267 kts | 120° |
| 2026-04-23 17:53 | 25.31559 | 55.40010 | 6507 ft | 266 kts | 120° |
| 2026-04-23 17:54 | 25.30591 | 55.41758 | 6089 ft | 265 kts | 120° |
| 2026-04-23 17:54 | 25.29635 | 55.43475 | 5683 ft | 264 kts | 120° |
| 2026-04-23 17:54 | 25.27723 | 55.46905 | 4884 ft | 262 kts | 120° |
| 2026-04-23 17:55 | 25.25823 | 55.50317 | 4106 ft | 260 kts | 120° |
| 2026-04-23 17:55 | 25.24885 | 55.52004 | 3931 ft | 251 kts | 120° |
| 2026-04-23 17:55 | 25.23992 | 55.53608 | 3853 ft | 239 kts | 120° |
| 2026-04-23 17:56 | 25.23133 | 55.55153 | 3602 ft | 237 kts | 120° |
| 2026-04-23 17:56 | 25.21403 | 55.58262 | 3045 ft | 236 kts | 120° |
| 2026-04-23 17:56 | 25.20555 | 55.59784 | 2985 ft | 226 kts | 120° |
| 2026-04-23 17:57 | 25.19745 | 55.61221 | 2952 ft | 217 kts | 124° |
| 2026-04-23 17:57 | 25.18607 | 55.62270 | 2750 ft | 218 kts | 157° |
| 2026-04-23 17:57 | 25.15767 | 55.61641 | 2272 ft | 224 kts | 225° |
| 2026-04-23 17:58 | 25.15049 | 55.60166 | 2008 ft | 219 kts | 259° |
| 2026-04-23 17:58 | 25.14997 | 55.59052 | 1873 ft | 219 kts | 271° |
| 2026-04-23 17:58 | 25.15036 | 55.57378 | 1677 ft | 218 kts | 272° |
| 2026-04-23 17:58 | 25.15086 | 55.55734 | 1484 ft | 206 kts | 276° |
| 2026-04-23 17:59 | 25.15430 | 55.54258 | 1309 ft | 196 kts | 294° |
| 2026-04-23 17:59 | 25.16061 | 55.52972 | 1298 ft | 185 kts | 302° |
| 2026-04-23 17:59 | 25.16749 | 55.51761 | 1479 ft | 185 kts | 303° |
| 2026-04-23 17:59 | 25.17434 | 55.50552 | 1412 ft | 186 kts | 302° |
| 2026-04-23 18:00 | 25.18110 | 55.49344 | 1446 ft | 185 kts | 302° |
| 2026-04-23 18:00 | 25.18784 | 55.48136 | 1553 ft | 185 kts | 302° |
| 2026-04-23 18:00 | 25.19462 | 55.46921 | 1627 ft | 186 kts | 302° |
| 2026-04-23 18:00 | 25.20133 | 55.45714 | 1636 ft | 186 kts | 302° |
| 2026-04-23 18:01 | 25.20811 | 55.44500 | 1494 ft | 188 kts | 303° |
| 2026-04-23 18:01 | 25.21492 | 55.43306 | 1039 ft | 183 kts | 301° |
| 2026-04-23 18:01 | 25.22114 | 55.42154 | 752 ft | 161 kts | 302° |
| 2026-04-23 18:01 | 25.22669 | 55.41157 | 452 ft | 149 kts | 302° |
| 2026-04-23 18:02 | 25.23180 | 55.40217 | 254 ft | 135 kts | 302° |
| 2026-04-23 18:02 | 25.23681 | 55.39322 | 90 ft | 136 kts | 302° |
| 2026-04-23 18:02 | 25.24126 | 55.38524 | 62 ft | 103 kts | 302° |
| 2026-04-23 18:02 | 25.24424 | 55.37985 | 58 ft | 58 kts | 301° |
| 2026-04-23 18:03 | 25.24558 | 55.37741 | 56 ft | 30 kts | 293° |
| 2026-04-23 18:03 | 25.24611 | 55.37519 | 55 ft | 25 kts | 270° |
| 2026-04-23 18:03 | 25.24617 | 55.37327 | 55 ft | 25 kts | 278° |
| 2026-04-23 18:03 | 25.24691 | 55.37141 | 51 ft | 27 kts | 301° |
| 2026-04-23 18:04 | 25.24789 | 55.36966 | 50 ft | 14 kts | 302° |
| 2026-04-23 18:04 | 25.24843 | 55.36866 | 51 ft | 16 kts | 291° |
| 2026-04-23 18:04 | 25.24868 | 55.36737 | 51 ft | 18 kts | 281° |
| 2026-04-23 18:04 | 25.24925 | 55.36603 | 50 ft | 20 kts | 302° |
| 2026-04-23 18:05 | 25.25007 | 55.36452 | 44 ft | 25 kts | 303° |
| 2026-04-23 18:05 | 25.25109 | 55.36272 | 40 ft | 28 kts | 301° |
| 2026-04-23 18:05 | 25.25209 | 55.36089 | 42 ft | 29 kts | 301° |
| 2026-04-23 18:05 | 25.25311 | 55.35904 | 35 ft | 16 kts | 302° |
| 2026-04-23 18:06 | 25.25379 | 55.35784 | 34 ft | 19 kts | 302° |
| 2026-04-23 18:06 | 25.25445 | 55.35664 | 38 ft | 18 kts | 301° |
| 2026-04-23 18:06 | 25.25520 | 55.35528 | 34 ft | 22 kts | 301° |
| 2026-04-23 18:06 | 25.25605 | 55.35374 | 36 ft | 23 kts | 301° |
| 2026-04-23 18:07 | 25.25695 | 55.35216 | 36 ft | 25 kts | 301° |
| 2026-04-23 18:07 | 25.25742 | 55.35126 | 35 ft | 10 kts | 297° |
| 2026-04-23 18:07 | 25.25773 | 55.35059 | 35 ft | 8 kts | 287° |
| 2026-04-23 18:07 | 25.25761 | 55.35011 | 35 ft | 6 kts | 227° |
| 2026-04-23 18:08 | 25.25727 | 55.34985 | 35 ft | 12 kts | 213° |
| 2026-04-23 18:08 | 25.25644 | 55.34929 | 35 ft | 8 kts | 211° |
| 2026-04-23 18:08 | 25.25611 | 55.34893 | 35 ft | 6 kts | 265° |
| 2026-04-23 18:08 | 25.25624 | 55.34852 | 35 ft | 5 kts | 298° |
| 2026-04-23 18:09 | 25.25640 | 55.34821 | 35 ft | 3 kts | 300° |
| 2026-04-23 18:09 | 25.25647 | 55.34808 | 35 ft | 0 kts | 301° |